createdAt,value
2022-12-03T00:00:14.759Z,7.714
2022-12-03T00:01:13.459Z,7.665
2022-12-03T00:02:13.600Z,7.605
2022-12-03T00:03:13.332Z,7.565
2022-12-03T00:04:13.089Z,7.585
2022-12-03T00:05:13.820Z,7.614
2022-12-03T00:06:12.788Z,7.592
2022-12-03T00:07:12.679Z,7.638
2022-12-03T00:08:12.537Z,7.620
2022-12-03T00:09:12.747Z,7.651
2022-12-03T00:10:12.855Z,7.657
2022-12-03T00:11:12.590Z,7.585
2022-12-03T00:12:12.692Z,7.579
2022-12-03T00:13:12.727Z,7.594
2022-12-03T00:14:12.710Z,7.590
2022-12-03T00:15:12.890Z,7.565
2022-12-03T00:16:13.236Z,7.605
2022-12-03T00:17:13.663Z,7.565
2022-12-03T00:18:12.512Z,7.585
2022-12-03T00:19:13.459Z,7.605
2022-12-03T00:20:13.036Z,7.594
2022-12-03T00:21:13.430Z,7.550
2022-12-03T00:22:13.654Z,7.594
2022-12-03T00:23:12.910Z,7.638
2022-12-03T00:24:13.167Z,7.693
2022-12-03T00:25:13.827Z,7.638
2022-12-03T00:26:12.880Z,7.655
2022-12-03T00:27:12.735Z,7.695
2022-12-03T00:28:12.904Z,7.605
2022-12-03T00:29:13.043Z,7.610
2022-12-03T00:30:13.266Z,7.614
2022-12-03T00:31:12.591Z,7.631
2022-12-03T00:32:12.466Z,7.637
2022-12-03T00:33:12.553Z,7.594
2022-12-03T00:34:13.423Z,7.534
2022-12-03T00:35:13.608Z,7.534
2022-12-03T00:36:12.896Z,7.489
2022-12-03T00:37:12.779Z,7.505
2022-12-03T00:38:13.427Z,7.510
2022-12-03T00:39:13.296Z,7.530
2022-12-03T00:40:12.684Z,7.559
2022-12-03T00:41:12.758Z,7.525
2022-12-03T00:42:12.381Z,7.534
2022-12-03T00:43:12.521Z,7.525
2022-12-03T00:44:13.224Z,7.565
2022-12-03T00:45:12.526Z,7.594
2022-12-03T00:46:15.761Z,7.550
2022-12-03T00:47:12.910Z,7.554
2022-12-03T00:48:12.733Z,7.570
2022-12-03T00:49:12.596Z,7.554
2022-12-03T00:50:13.446Z,7.574
2022-12-03T00:51:13.210Z,7.579
2022-12-03T00:52:13.044Z,7.579
2022-12-03T00:53:13.170Z,7.559
2022-12-03T00:54:12.674Z,7.579
2022-12-03T00:55:12.448Z,7.605
2022-12-03T00:56:12.564Z,7.550
2022-12-03T00:57:13.168Z,7.530
2022-12-03T00:58:13.011Z,7.514
2022-12-03T00:59:13.013Z,7.574
2022-12-03T01:00:14.517Z,7.631
2022-12-03T01:01:14.518Z,7.554
2022-12-03T01:02:14.143Z,7.545
2022-12-03T01:03:13.418Z,7.590
2022-12-03T01:04:12.779Z,7.637
2022-12-03T01:05:13.796Z,7.625
2022-12-03T01:06:12.801Z,7.690
2022-12-03T01:07:12.778Z,7.760
2022-12-03T01:08:12.731Z,7.689
2022-12-03T01:09:12.740Z,7.594
2022-12-03T01:10:13.054Z,7.565
2022-12-03T01:11:13.232Z,7.514
2022-12-03T01:12:13.518Z,7.505
2022-12-03T01:13:12.895Z,7.514
2022-12-03T01:14:13.213Z,7.554
2022-12-03T01:15:13.308Z,7.565
2022-12-03T01:16:12.828Z,7.605
2022-12-03T01:17:13.308Z,7.671
2022-12-03T01:18:12.271Z,7.637
2022-12-03T01:19:13.180Z,7.643
2022-12-03T01:20:13.194Z,7.620
2022-12-03T01:21:13.079Z,7.620
2022-12-03T01:22:13.226Z,7.699
2022-12-03T01:23:12.756Z,7.710
2022-12-03T01:24:13.146Z,7.704
2022-12-03T01:25:13.437Z,7.724
2022-12-03T01:26:13.394Z,7.775
2022-12-03T01:27:12.612Z,7.728
2022-12-03T01:28:12.738Z,7.768
2022-12-03T01:29:17.815Z,7.730
2022-12-03T01:30:12.850Z,7.718
2022-12-03T01:31:12.938Z,7.610
2022-12-03T01:32:13.021Z,7.638
2022-12-03T01:33:17.776Z,7.620
2022-12-03T01:34:12.485Z,7.616
2022-12-03T01:35:12.407Z,7.626
2022-12-03T01:36:12.678Z,7.684
2022-12-03T01:37:21.274Z,7.632
2022-12-03T01:38:13.185Z,7.614
2022-12-03T01:39:11.641Z,7.610
2022-12-03T01:40:12.754Z,7.605
2022-12-03T01:41:12.545Z,7.605
2022-12-03T01:42:12.797Z,7.579
2022-12-03T01:43:12.665Z,7.550
2022-12-03T01:44:12.692Z,7.519
2022-12-03T01:45:12.930Z,7.590
2022-12-03T01:46:13.333Z,7.620
2022-12-03T01:47:27.222Z,7.610
2022-12-03T01:48:13.030Z,7.590
2022-12-03T01:49:12.523Z,7.565
2022-12-03T01:50:13.542Z,7.594
2022-12-03T01:51:13.308Z,7.637
2022-12-03T01:52:13.220Z,7.599
2022-12-03T01:53:27.318Z,7.585
2022-12-03T01:54:12.029Z,7.594
2022-12-03T01:55:13.160Z,7.605
2022-12-03T01:56:12.868Z,7.605
2022-12-03T01:57:27.206Z,7.614
2022-12-03T01:58:12.572Z,7.671
2022-12-03T01:59:12.701Z,7.659
2022-12-03T02:00:13.352Z,7.638
2022-12-03T02:01:13.195Z,7.599
2022-12-03T02:02:12.295Z,7.610
2022-12-03T02:03:12.296Z,7.565
2022-12-03T02:04:13.109Z,7.594
2022-12-03T02:05:12.667Z,7.570
2022-12-03T02:06:12.448Z,7.559
2022-12-03T02:07:12.627Z,7.510
2022-12-03T02:08:12.744Z,7.465
2022-12-03T02:09:12.932Z,7.485
2022-12-03T02:10:13.223Z,7.485
2022-12-03T02:11:13.281Z,7.480
2022-12-03T02:12:13.419Z,7.505
2022-12-03T02:13:12.902Z,7.550
2022-12-03T02:14:12.855Z,7.525
2022-12-03T02:15:12.878Z,7.474
2022-12-03T02:16:13.238Z,7.474
2022-12-03T02:17:12.536Z,7.480
2022-12-03T02:18:12.618Z,7.530
2022-12-03T02:19:13.109Z,7.585
2022-12-03T02:20:13.475Z,7.570
2022-12-03T02:21:12.689Z,7.545
2022-12-03T02:22:12.774Z,7.539
2022-12-03T02:23:12.945Z,7.545
2022-12-03T02:24:13.762Z,7.559
2022-12-03T02:25:13.102Z,7.519
2022-12-03T02:26:12.348Z,7.525
2022-12-03T02:27:12.675Z,7.5
2022-12-03T02:28:12.463Z,7.514
2022-12-03T02:29:12.919Z,7.559
2022-12-03T02:30:13.439Z,7.514
2022-12-03T02:31:12.732Z,7.469
2022-12-03T02:32:12.482Z,7.480
2022-12-03T02:33:12.715Z,7.489
2022-12-03T02:34:12.977Z,7.485
2022-12-03T02:35:12.548Z,7.494
2022-12-03T02:36:13.297Z,7.505
2022-12-03T02:37:13.212Z,7.5
2022-12-03T02:38:13.221Z,7.545
2022-12-03T02:39:13.394Z,7.599
2022-12-03T02:40:12.533Z,7.579
2022-12-03T02:41:12.891Z,7.605
2022-12-03T02:42:12.881Z,7.570
2022-12-03T02:43:12.560Z,7.574
2022-12-03T02:44:12.766Z,7.599
2022-12-03T02:45:12.937Z,7.585
2022-12-03T02:46:13.314Z,7.610
2022-12-03T02:47:13.077Z,7.655
2022-12-03T02:48:13.010Z,7.644
2022-12-03T02:49:12.613Z,7.614
2022-12-03T02:50:13.117Z,7.610
2022-12-03T02:51:12.419Z,7.592
2022-12-03T02:52:13.239Z,7.592
2022-12-03T02:53:12.890Z,7.643
2022-12-03T02:54:12.668Z,7.670
2022-12-03T02:55:13.271Z,7.625
2022-12-03T02:56:12.852Z,7.632
2022-12-03T02:57:13.106Z,7.657
2022-12-03T02:58:13.791Z,7.681
2022-12-03T02:59:12.959Z,7.655
2022-12-03T03:00:13.993Z,7.625
2022-12-03T03:01:13.119Z,7.657
2022-12-03T03:02:13.859Z,7.659
2022-12-03T03:03:13.357Z,7.659
2022-12-03T03:04:12.603Z,7.649
2022-12-03T03:05:14.056Z,7.643
2022-12-03T03:06:12.997Z,7.594
2022-12-03T03:07:13.121Z,7.590
2022-12-03T03:08:12.454Z,7.610
2022-12-03T03:09:12.700Z,7.599
2022-12-03T03:10:12.371Z,7.610
2022-12-03T03:12:13.408Z,7.688
2022-12-03T03:13:12.788Z,7.718
2022-12-03T03:14:12.285Z,7.710
2022-12-03T03:15:13.642Z,7.671
2022-12-03T03:16:12.785Z,7.659
2022-12-03T03:17:13.515Z,7.690
2022-12-03T03:18:12.245Z,7.699
2022-12-03T03:19:12.854Z,7.678
2022-12-03T03:20:12.988Z,7.695
2022-12-03T03:21:12.977Z,7.693
2022-12-03T03:22:12.946Z,7.678
2022-12-03T03:23:12.941Z,7.677
2022-12-03T03:24:12.963Z,7.637
2022-12-03T03:25:12.927Z,7.610
2022-12-03T03:26:12.938Z,7.614
2022-12-03T03:27:13.068Z,7.638
2022-12-03T03:28:13.234Z,7.689
2022-12-03T03:29:13.477Z,7.693
2022-12-03T03:30:13.068Z,7.643
2022-12-03T03:31:13.458Z,7.649
2022-12-03T03:32:13.204Z,7.670
2022-12-03T03:33:13.348Z,7.649
2022-12-03T03:34:13.370Z,7.671
2022-12-03T03:35:13.315Z,7.695
2022-12-03T03:36:12.948Z,7.695
2022-12-03T03:37:12.836Z,7.735
2022-12-03T03:38:12.844Z,7.655
2022-12-03T03:39:13.921Z,7.599
2022-12-03T03:40:13.092Z,7.665
2022-12-03T03:41:13.287Z,7.671
2022-12-03T03:42:13.332Z,7.703
2022-12-03T03:43:12.922Z,7.714
2022-12-03T03:44:12.816Z,7.710
2022-12-03T03:45:13.472Z,7.689
2022-12-03T03:46:13.353Z,7.614
2022-12-03T03:47:12.723Z,7.620
2022-12-03T03:48:12.680Z,7.643
2022-12-03T03:49:13.919Z,7.599
2022-12-03T03:50:12.846Z,7.632
2022-12-03T03:51:13.103Z,7.684
2022-12-03T03:52:13.257Z,7.683
2022-12-03T03:53:12.930Z,7.677
2022-12-03T03:54:12.585Z,7.764
2022-12-03T03:55:14.101Z,7.744
2022-12-03T03:56:18.152Z,7.780
2022-12-03T03:57:12.788Z,7.775
2022-12-03T03:58:12.621Z,7.697
2022-12-03T03:59:12.253Z,7.710
2022-12-03T04:00:18.567Z,7.692
2022-12-03T04:01:13.203Z,7.695
2022-12-03T04:02:18.057Z,7.693
2022-12-03T04:03:13.150Z,7.699
2022-12-03T04:04:12.939Z,7.678
2022-12-03T04:05:13.174Z,7.665
2022-12-03T04:06:12.936Z,7.643
2022-12-03T04:07:13.549Z,7.686
2022-12-03T04:08:20.454Z,7.730
2022-12-03T04:09:12.518Z,7.682
2022-12-03T04:10:26.436Z,7.655
2022-12-03T04:11:13.204Z,7.650
2022-12-03T04:12:13.584Z,7.659
2022-12-03T04:13:12.342Z,7.625
2022-12-03T04:14:27.298Z,7.605
2022-12-03T04:15:12.952Z,7.693
2022-12-03T04:16:12.738Z,7.672
2022-12-03T04:17:12.946Z,7.684
2022-12-03T04:18:13.153Z,7.638
2022-12-03T04:19:13.091Z,7.585
2022-12-03T04:20:13.366Z,7.587
2022-12-03T04:21:12.991Z,7.573
2022-12-03T04:22:13.073Z,7.570
2022-12-03T04:23:13.014Z,7.581
2022-12-03T04:24:13.240Z,7.616
2022-12-03T04:25:13.469Z,7.639
2022-12-03T04:26:12.415Z,7.554
2022-12-03T04:27:13.426Z,7.564
2022-12-03T04:28:13.191Z,7.587
2022-12-03T04:29:13.294Z,7.643
2022-12-03T04:30:13.900Z,7.638
2022-12-03T04:31:13.311Z,7.676
2022-12-03T04:32:12.425Z,7.828
2022-12-03T04:33:13.279Z,7.769
2022-12-03T04:34:12.951Z,7.719
2022-12-03T04:35:13.334Z,7.683
2022-12-03T04:36:12.796Z,7.643
2022-12-03T04:37:12.593Z,7.649
2022-12-03T04:38:12.466Z,7.644
2022-12-03T04:39:13.719Z,7.659
2022-12-03T04:40:12.656Z,7.671
2022-12-03T04:41:12.470Z,7.644
2022-12-03T04:42:12.696Z,7.625
2022-12-03T04:43:13.073Z,7.559
2022-12-03T04:44:13.084Z,7.550
2022-12-03T04:45:13.348Z,7.570
2022-12-03T04:46:13.517Z,7.610
2022-12-03T04:47:13.553Z,7.625
2022-12-03T04:48:12.788Z,7.638
2022-12-03T04:49:13.262Z,7.638
2022-12-03T04:50:13.957Z,7.614
2022-12-03T04:51:12.903Z,7.637
2022-12-03T04:52:13.006Z,7.620
2022-12-03T04:53:13.130Z,7.631
2022-12-03T04:55:13.074Z,7.614
2022-12-03T04:56:12.655Z,7.605
2022-12-03T04:57:11.994Z,7.649
2022-12-03T04:58:12.612Z,7.666
2022-12-03T04:59:16.044Z,7.620
2022-12-03T05:00:13.549Z,7.637
2022-12-03T05:01:12.907Z,7.625
2022-12-03T05:02:13.321Z,7.665
2022-12-03T05:03:12.595Z,7.683
2022-12-03T05:04:13.265Z,7.689
2022-12-03T05:05:13.220Z,7.638
2022-12-03T05:06:13.312Z,7.649
2022-12-03T05:07:13.197Z,7.644
2022-12-03T05:08:13.520Z,7.620
2022-12-03T05:09:12.920Z,7.678
2022-12-03T05:10:13.357Z,7.693
2022-12-03T05:11:12.761Z,7.739
2022-12-03T05:12:12.633Z,7.744
2022-12-03T05:13:12.713Z,7.775
2022-12-03T05:14:12.102Z,7.769
2022-12-03T05:15:12.945Z,7.821
2022-12-03T05:16:12.553Z,7.775
2022-12-03T05:17:12.256Z,7.75
2022-12-03T05:18:13.051Z,7.739
2022-12-03T05:19:12.658Z,7.769
2022-12-03T05:20:12.195Z,7.695
2022-12-03T05:21:12.846Z,7.699
2022-12-03T05:22:12.163Z,7.693
2022-12-03T05:23:13.224Z,7.710
2022-12-03T05:24:12.477Z,7.744
2022-12-03T05:25:12.264Z,7.719
2022-12-03T05:26:12.903Z,7.739
2022-12-03T05:27:12.588Z,7.75
2022-12-03T05:28:11.814Z,7.755
2022-12-03T05:29:12.902Z,7.780
2022-12-03T05:30:12.727Z,7.739
2022-12-03T05:31:12.312Z,7.715
2022-12-03T05:32:13.027Z,7.649
2022-12-03T05:33:12.704Z,7.671
2022-12-03T05:34:12.111Z,7.671
2022-12-03T05:35:12.922Z,7.631
2022-12-03T05:36:12.495Z,7.649
2022-12-03T05:37:13.101Z,7.655
2022-12-03T05:38:12.828Z,7.644
2022-12-03T05:39:12.712Z,7.638
2022-12-03T05:40:12.820Z,7.659
2022-12-03T05:41:12.376Z,7.599
2022-12-03T05:42:12.867Z,7.543
2022-12-03T05:43:12.526Z,7.522
2022-12-03T05:44:17.391Z,7.550
2022-12-03T05:45:13.065Z,7.538
2022-12-03T05:46:12.816Z,7.555
2022-12-03T05:47:13.262Z,7.592
2022-12-03T05:48:13.516Z,7.554
2022-12-03T05:49:12.813Z,7.586
2022-12-03T05:50:13.409Z,7.565
2022-12-03T05:51:13.725Z,7.554
2022-12-03T05:52:13.472Z,7.550
2022-12-03T05:53:13.034Z,7.585
2022-12-03T05:54:13.325Z,7.590
2022-12-03T05:55:13.525Z,7.620
2022-12-03T05:56:13.065Z,7.671
2022-12-03T05:57:12.422Z,7.677
2022-12-03T05:58:12.830Z,7.638
2022-12-03T05:59:12.902Z,7.620
2022-12-03T06:00:13.483Z,7.631
2022-12-03T06:01:12.673Z,7.620
2022-12-03T06:02:13.306Z,7.610
2022-12-03T06:03:12.714Z,7.649
2022-12-03T06:04:13.372Z,7.644
2022-12-03T06:05:12.519Z,7.574
2022-12-03T06:06:12.307Z,7.565
2022-12-03T06:07:14.260Z,7.579
2022-12-03T06:08:12.420Z,7.554
2022-12-03T06:09:12.966Z,7.559
2022-12-03T06:10:13.298Z,7.605
2022-12-03T06:11:12.670Z,7.620
2022-12-03T06:12:13.014Z,7.655
2022-12-03T06:13:13.172Z,7.611
2022-12-03T06:14:13.399Z,7.594
2022-12-03T06:15:12.826Z,7.631
2022-12-03T06:16:13.473Z,7.614
2022-12-03T06:17:17.671Z,7.619
2022-12-03T06:18:12.495Z,7.599
2022-12-03T06:19:13.066Z,7.649
2022-12-03T06:20:13.509Z,7.627
2022-12-03T06:21:17.983Z,7.632
2022-12-03T06:22:12.642Z,7.599
2022-12-03T06:23:13.359Z,7.625
2022-12-03T06:24:12.754Z,7.625
2022-12-03T06:25:13.275Z,7.599
2022-12-03T06:26:12.114Z,7.539
2022-12-03T06:27:13.345Z,7.525
2022-12-03T06:28:13.443Z,7.469
2022-12-03T06:29:12.886Z,7.545
2022-12-03T06:30:14.053Z,7.685
2022-12-03T06:31:20.338Z,7.698
2022-12-03T06:32:13.229Z,7.715
2022-12-03T06:33:21.322Z,7.565
2022-12-03T06:34:12.587Z,7.530
2022-12-03T06:35:26.517Z,7.530
2022-12-03T06:36:12.722Z,7.550
2022-12-03T06:37:13.210Z,7.574
2022-12-03T06:38:12.700Z,7.534
2022-12-03T06:39:27.021Z,7.525
2022-12-03T06:40:13.437Z,7.480
2022-12-03T06:41:12.871Z,7.489
2022-12-03T06:42:13.125Z,7.494
2022-12-03T06:43:13.493Z,7.5
2022-12-03T06:44:12.382Z,7.545
2022-12-03T06:45:13.929Z,7.574
2022-12-03T06:46:13.148Z,7.525
2022-12-03T06:47:26.783Z,7.545
2022-12-03T06:48:13.280Z,7.579
2022-12-03T06:49:13.057Z,7.550
2022-12-03T06:50:13.197Z,7.530
2022-12-03T06:51:12.963Z,7.550
2022-12-03T06:52:13.210Z,7.579
2022-12-03T06:53:32.737Z,7.599
2022-12-03T06:54:12.944Z,7.559
2022-12-03T06:55:13.586Z,7.559
2022-12-03T06:56:12.946Z,7.570
2022-12-03T06:57:13.321Z,7.643
2022-12-03T06:58:12.937Z,7.710
2022-12-03T06:59:13.149Z,7.682
2022-12-03T07:00:14.130Z,7.671
2022-12-03T07:01:12.607Z,7.688
2022-12-03T07:02:13.279Z,7.631
2022-12-03T07:03:12.567Z,7.594
2022-12-03T07:04:12.933Z,7.565
2022-12-03T07:05:35.713Z,7.554
2022-12-03T07:06:13.682Z,7.514
2022-12-03T07:07:13.544Z,7.513
2022-12-03T07:08:13.391Z,7.483
2022-12-03T07:09:13.185Z,7.494
2022-12-03T07:10:13.027Z,7.489
2022-12-03T07:12:13.244Z,7.486
2022-12-03T07:13:27.512Z,7.5
2022-12-03T07:14:13.381Z,7.539
2022-12-03T07:15:12.949Z,7.509
2022-12-03T07:16:12.858Z,7.505
2022-12-03T07:17:13.267Z,7.518
2022-12-03T07:18:12.972Z,7.548
2022-12-03T07:19:13.967Z,7.525
2022-12-03T07:20:13.408Z,7.568
2022-12-03T07:22:12.853Z,7.599
2022-12-03T07:23:12.950Z,7.585
2022-12-03T07:24:13.339Z,7.570
2022-12-03T07:25:15.736Z,7.599
2022-12-03T07:26:13.283Z,7.643
2022-12-03T07:28:13.530Z,7.616
2022-12-03T07:29:12.954Z,7.631
2022-12-03T07:30:13.753Z,7.644
2022-12-03T07:32:13.321Z,7.620
2022-12-03T07:33:13.208Z,7.605
2022-12-03T07:34:12.922Z,7.616
2022-12-03T07:35:13.944Z,7.590
2022-12-03T07:36:13.561Z,7.631
2022-12-03T07:37:13.165Z,7.616
2022-12-03T07:38:12.847Z,7.585
2022-12-03T07:39:13.645Z,7.610
2022-12-03T07:40:13.049Z,7.599
2022-12-03T07:41:13.027Z,7.570
2022-12-03T07:42:13.151Z,7.539
2022-12-03T07:43:12.800Z,7.559
2022-12-03T07:44:14.795Z,7.599
2022-12-03T07:45:13.637Z,7.643
2022-12-03T07:46:13.208Z,7.735
2022-12-03T07:47:12.875Z,7.693
2022-12-03T07:48:13.318Z,7.699
2022-12-03T07:49:13.725Z,7.638
2022-12-03T07:50:13.508Z,7.614
2022-12-03T07:51:15.418Z,7.579
2022-12-03T07:52:13.130Z,7.570
2022-12-03T07:53:13.795Z,7.599
2022-12-03T07:54:13.255Z,7.614
2022-12-03T07:55:13.003Z,7.631
2022-12-03T07:56:13.457Z,7.659
2022-12-03T07:57:13.356Z,7.632
2022-12-03T07:58:12.534Z,7.689
2022-12-03T07:59:12.958Z,7.75
2022-12-03T08:00:13.909Z,7.698
2022-12-03T08:01:13.905Z,7.695
2022-12-03T08:02:19.517Z,7.689
2022-12-03T08:03:13.053Z,7.695
2022-12-03T08:04:13.766Z,7.683
2022-12-03T08:05:12.847Z,7.704
2022-12-03T08:06:13.431Z,7.704
2022-12-03T08:07:13.751Z,7.671
2022-12-03T08:08:13.228Z,7.698
2022-12-03T08:09:15.988Z,7.730
2022-12-03T08:10:14.217Z,7.735
2022-12-03T08:11:12.667Z,7.784
2022-12-03T08:12:13.520Z,7.784
2022-12-03T08:13:12.847Z,7.764
2022-12-03T08:14:13.675Z,7.692
2022-12-03T08:15:13.664Z,7.686
2022-12-03T08:16:13.333Z,7.744
2022-12-03T08:17:12.960Z,7.75
2022-12-03T08:18:13.514Z,7.760
2022-12-03T08:19:13.851Z,7.739
2022-12-03T08:20:13.257Z,7.780
2022-12-03T08:21:12.699Z,7.789
2022-12-03T08:22:13.390Z,7.795
2022-12-03T08:23:13.225Z,7.715
2022-12-03T08:24:13.644Z,7.764
2022-12-03T08:25:13.018Z,7.739
2022-12-03T08:26:13.063Z,7.730
2022-12-03T08:27:13.254Z,7.789
2022-12-03T08:28:13.203Z,7.780
2022-12-03T08:29:13.984Z,7.800
2022-12-03T08:30:13.937Z,7.775
2022-12-03T08:31:13.467Z,7.769
2022-12-03T08:32:13.507Z,7.789
2022-12-03T08:33:13.581Z,7.777
2022-12-03T08:34:13.069Z,7.722
2022-12-03T08:35:14.087Z,7.755
2022-12-03T08:36:13.827Z,7.789
2022-12-03T08:37:13.824Z,7.763
2022-12-03T08:38:13.767Z,7.836
2022-12-03T08:39:13.795Z,7.912
2022-12-03T08:40:13.787Z,7.930
2022-12-03T08:41:13.177Z,7.889
2022-12-03T08:42:17.515Z,7.861
2022-12-03T08:43:12.721Z,7.810
2022-12-03T08:44:18.316Z,7.844
2022-12-03T08:45:12.877Z,7.867
2022-12-03T08:46:18.392Z,7.795
2022-12-03T08:47:13.918Z,7.764
2022-12-03T08:48:18.810Z,7.796
2022-12-03T08:49:13.084Z,7.775
2022-12-03T08:50:18.207Z,7.760
2022-12-03T08:51:14.257Z,7.744
2022-12-03T08:52:13.358Z,7.715
2022-12-03T08:53:12.283Z,7.816
2022-12-03T08:54:21.790Z,7.888
2022-12-03T08:55:13.811Z,7.885
2022-12-03T08:56:13.432Z,7.877
2022-12-03T08:57:13.116Z,7.888
2022-12-03T08:58:21.110Z,7.822
2022-12-03T08:59:13.770Z,7.821
2022-12-03T09:00:22.878Z,7.855
2022-12-03T09:01:13.422Z,7.855
2022-12-03T09:02:26.995Z,7.874
2022-12-03T09:03:13.430Z,7.882
2022-12-03T09:04:13.351Z,7.861
2022-12-03T09:05:13.403Z,7.919
2022-12-03T09:06:27.247Z,8.015
2022-12-03T09:07:13.352Z,7.985
2022-12-03T09:08:13.112Z,7.945
2022-12-03T09:09:12.856Z,7.900
2022-12-03T09:10:13.268Z,7.827
2022-12-03T09:11:12.478Z,7.839
2022-12-03T09:12:13.352Z,7.868
2022-12-03T09:13:13.056Z,7.928
2022-12-03T09:14:18.359Z,7.934
2022-12-03T09:15:12.871Z,7.868
2022-12-03T09:16:12.721Z,7.789
2022-12-03T09:17:13.579Z,7.780
2022-12-03T09:18:13.667Z,7.811
2022-12-03T09:19:13.413Z,7.789
2022-12-03T09:20:13.433Z,7.821
2022-12-03T09:21:13.113Z,7.816
2022-12-03T09:22:13.060Z,7.775
2022-12-03T09:23:12.816Z,7.75
2022-12-03T09:24:13.707Z,7.724
2022-12-03T09:25:13.581Z,7.75
2022-12-03T09:26:13.627Z,7.739
2022-12-03T09:27:13.153Z,7.710
2022-12-03T09:28:12.816Z,7.769
2022-12-03T09:29:13.742Z,7.828
2022-12-03T09:30:35.888Z,7.873
2022-12-03T09:31:13.267Z,7.888
2022-12-03T09:32:18.127Z,7.965
2022-12-03T09:33:13.152Z,7.994
2022-12-03T09:34:13.866Z,7.925
2022-12-03T09:35:14.290Z,7.929
2022-12-03T09:36:13.197Z,7.848
2022-12-03T09:37:13.156Z,7.848
2022-12-03T09:39:13.119Z,7.880
2022-12-03T09:41:13.768Z,7.940
2022-12-03T09:43:13.379Z,7.929
2022-12-03T09:44:17.522Z,7.855
2022-12-03T09:45:14.121Z,7.815
2022-12-03T09:46:12.893Z,7.889
2022-12-03T09:47:12.819Z,7.883
2022-12-03T09:48:13.391Z,7.879
2022-12-03T09:49:16.072Z,7.849
2022-12-03T09:50:14.332Z,7.844
2022-12-03T09:51:12.633Z,7.883
2022-12-03T09:52:13.035Z,7.960
2022-12-03T09:53:12.690Z,8
2022-12-03T09:54:13.210Z,8
2022-12-03T09:55:13.037Z,8.034
2022-12-03T09:56:13.065Z,7.985
2022-12-03T09:57:13.817Z,7.960
2022-12-03T09:58:13.375Z,7.949
2022-12-03T09:59:13.348Z,7.934
2022-12-03T10:00:14.377Z,7.960
2022-12-03T10:01:13.629Z,8.034
2022-12-03T10:02:13.679Z,8.060
2022-12-03T10:03:13.444Z,8.031
2022-12-03T10:04:13.041Z,8.064
2022-12-03T10:05:12.983Z,8.050
2022-12-03T10:06:13.643Z,7.986
2022-12-03T10:07:13.317Z,7.967
2022-12-03T10:08:13.264Z,7.960
2022-12-03T10:09:13.820Z,7.965
2022-12-03T10:10:14.387Z,7.960
2022-12-03T10:11:12.931Z,8.034
2022-12-03T10:12:13.038Z,8.055
2022-12-03T10:13:13.721Z,8.045
2022-12-03T10:14:13.022Z,8.039
2022-12-03T10:15:14.342Z,8.034
2022-12-03T10:16:12.960Z,8.064
2022-12-03T10:17:14.048Z,8.055
2022-12-03T10:18:13.305Z,8.090
2022-12-03T10:19:13.193Z,8.085
2022-12-03T10:20:13.315Z,8.100
2022-12-03T10:21:13.756Z,8.085
2022-12-03T10:22:13.489Z,8.126
2022-12-03T10:23:13.178Z,8.184
2022-12-03T10:24:14.385Z,8.166
2022-12-03T10:25:13.355Z,8.154
2022-12-03T10:26:13.506Z,8.199
2022-12-03T10:27:13.727Z,8.121
2022-12-03T10:28:13.667Z,8.079
2022-12-03T10:29:13.043Z,8.074
2022-12-03T10:30:13.179Z,8.064
2022-12-03T10:31:13.341Z,8.085
2022-12-03T10:32:13.514Z,8.182
2022-12-03T10:33:17.234Z,8.210
2022-12-03T10:34:13.352Z,8.210
2022-12-03T10:35:13.809Z,8.159
2022-12-03T10:36:13.859Z,8.159
2022-12-03T10:37:14.377Z,8.218
2022-12-03T10:38:13.746Z,8.204
2022-12-03T10:39:13.352Z,8.239
2022-12-03T10:40:13.409Z,8.220
2022-12-03T10:41:13.352Z,8.229
2022-12-03T10:42:12.773Z,8.215
2022-12-03T10:43:13.199Z,8.333
2022-12-03T10:44:12.911Z,8.295
2022-12-03T10:45:13.971Z,8.274
2022-12-03T10:46:14.023Z,8.305
2022-12-03T10:47:13.470Z,8.362
2022-12-03T10:48:13.730Z,8.345
2022-12-03T10:49:13.622Z,8.425
2022-12-03T10:50:13.336Z,8.404
2022-12-03T10:51:13.165Z,8.379
2022-12-03T10:52:13.539Z,8.404
2022-12-03T10:53:13.058Z,8.395
2022-12-03T10:54:13.793Z,8.420
2022-12-03T10:55:13.903Z,8.404
2022-12-03T10:56:13.799Z,8.388
2022-12-03T10:57:14.138Z,8.439
2022-12-03T10:58:12.647Z,8.460
2022-12-03T10:59:13.709Z,8.470
2022-12-03T11:00:14.836Z,8.616
2022-12-03T11:01:13.335Z,8.590
2022-12-03T11:02:13.402Z,8.515
2022-12-03T11:03:13.301Z,8.444
2022-12-03T11:04:12.931Z,8.430
2022-12-03T11:05:14.109Z,8.494
2022-12-03T11:06:14.149Z,8.460
2022-12-03T11:07:14.017Z,8.479
2022-12-03T11:08:12.619Z,8.489
2022-12-03T11:09:13.610Z,8.484
2022-12-03T11:10:13.433Z,8.475
2022-12-03T11:11:13.894Z,8.484
2022-12-03T11:12:13.544Z,8.539
2022-12-03T11:13:18.079Z,8.604
2022-12-03T11:14:18.065Z,8.604
2022-12-03T11:15:14.205Z,8.579
2022-12-03T11:16:13.729Z,8.569
2022-12-03T11:17:13.513Z,8.569
2022-12-03T11:18:13.139Z,8.574
2022-12-03T11:19:12.550Z,8.682
2022-12-03T11:20:18.072Z,8.694
2022-12-03T11:21:21.081Z,8.633
2022-12-03T11:22:12.960Z,8.626
2022-12-03T11:23:21.943Z,8.609
2022-12-03T11:24:13.658Z,8.619
2022-12-03T11:25:21.407Z,8.673
2022-12-03T11:26:18.628Z,8.689
2022-12-03T11:27:27.760Z,8.678
2022-12-03T11:28:12.890Z,8.717
2022-12-03T11:29:27.498Z,8.711
2022-12-03T11:30:13.941Z,8.75
2022-12-03T11:31:27.484Z,8.755
2022-12-03T11:32:13.554Z,8.729
2022-12-03T11:33:27.847Z,8.725
2022-12-03T11:34:13.078Z,8.710
2022-12-03T11:35:28.003Z,8.631
2022-12-03T11:36:13.261Z,8.604
2022-12-03T11:37:14.141Z,8.555
2022-12-03T11:38:12.923Z,8.800
2022-12-03T11:39:31.745Z,8.734
2022-12-03T11:40:13.971Z,8.704
2022-12-03T11:41:13.663Z,8.720
2022-12-03T11:42:14.180Z,8.670
2022-12-03T11:43:32.676Z,8.649
2022-12-03T11:44:13.028Z,8.637
2022-12-03T11:45:14.073Z,8.642
2022-12-03T11:46:12.598Z,8.637
2022-12-03T11:47:32.628Z,8.642
2022-12-03T11:48:13.038Z,8.694
2022-12-03T11:49:13.771Z,8.687
2022-12-03T11:50:13.674Z,8.689
2022-12-03T11:51:12.960Z,8.734
2022-12-03T11:52:13.317Z,8.704
2022-12-03T11:53:12.608Z,8.744
2022-12-03T11:54:13.150Z,8.708
2022-12-03T11:55:14.114Z,8.720
2022-12-03T11:56:13.534Z,8.755
2022-12-03T11:57:13.572Z,8.75
2022-12-03T11:58:13.439Z,8.779
2022-12-03T11:59:12.664Z,8.784
2022-12-03T12:00:14.353Z,8.765
2022-12-03T12:01:27.673Z,8.805
2022-12-03T12:02:12.879Z,8.795
2022-12-03T12:04:13.822Z,8.833
2022-12-03T12:05:14.049Z,8.845
2022-12-03T12:06:13.558Z,8.826
2022-12-03T12:08:12.837Z,8.873
2022-12-03T12:09:13.706Z,8.861
2022-12-03T12:10:13.794Z,8.805
2022-12-03T12:11:12.780Z,8.855
2022-12-03T12:12:12.947Z,8.845
2022-12-03T12:13:13.687Z,8.850
2022-12-03T12:14:13.146Z,8.876
2022-12-03T12:15:14.143Z,8.850
2022-12-03T12:16:14.051Z,8.868
2022-12-03T12:17:13.637Z,8.920
2022-12-03T12:18:13.592Z,8.874
2022-12-03T12:19:13.686Z,8.838
2022-12-03T12:20:13.788Z,8.862
2022-12-03T12:21:13.465Z,8.862
2022-12-03T12:22:13.576Z,8.833
2022-12-03T12:24:13.368Z,8.895
2022-12-03T12:25:13.558Z,8.899
2022-12-03T12:26:13.531Z,8.930
2022-12-03T12:27:13.178Z,8.979
2022-12-03T12:28:13.374Z,9.024
2022-12-03T12:29:13.113Z,9.055
2022-12-03T12:30:13.817Z,9.034
2022-12-03T12:31:13.090Z,9.034
2022-12-03T12:32:13.860Z,9.045
2022-12-03T12:33:14.143Z,9.045
2022-12-03T12:34:12.804Z,9.024
2022-12-03T12:35:13.679Z,9.050
2022-12-03T12:36:13.472Z,9.055
2022-12-03T12:37:12.723Z,9.024
2022-12-03T12:38:13.625Z,8.989
2022-12-03T12:39:13.371Z,9
2022-12-03T12:40:13.331Z,8.979
2022-12-03T12:41:13.262Z,9.010
2022-12-03T12:42:13.369Z,8.970
2022-12-03T12:43:16.499Z,8.895
2022-12-03T12:44:13.382Z,8.944
2022-12-03T12:45:13.661Z,8.979
2022-12-03T12:46:31.473Z,8.979
2022-12-03T12:47:12.725Z,9.020
2022-12-03T12:48:13.049Z,9
2022-12-03T12:49:12.807Z,8.975
2022-12-03T12:50:13.776Z,8.967
2022-12-03T12:51:13.403Z,8.994
2022-12-03T12:52:13.100Z,8.970
2022-12-03T12:53:13.073Z,8.934
2022-12-03T12:54:12.775Z,8.893
2022-12-03T12:55:13.586Z,8.885
2022-12-03T12:56:13.440Z,8.871
2022-12-03T12:57:13.266Z,8.893
2022-12-03T12:58:12.734Z,8.859
2022-12-03T12:59:13.561Z,8.838
2022-12-03T13:00:14.355Z,8.894
2022-12-03T13:01:13.001Z,8.960
2022-12-03T13:02:12.828Z,8.984
2022-12-03T13:03:12.792Z,8.949
2022-12-03T13:04:13.104Z,8.909
2022-12-03T13:05:13.394Z,8.954